Time;durP1;ratioP1;P1;durP2;ratioP2;P2;SDS_P1;SDS_P2;PMS_P1;PMS_P2;Temp;Humidity;BMP_temperature;BMP_pressure;BME280_temperature;BME280_humidity;BME280_pressure;Samples;Min_cycle;Max_cycle;Signal;HPM_P1;HPM_P2
2024/05/07 00:01:10;;;;;;;11.88;10.60;;;;;;;7.73;56.29;101406.41;5370142;26;20015;-69
2024/05/07 00:03:36;;;;;;;12.43;10.75;;;;;;;7.72;56.38;101403.84;5319810;26;20023;-66
2024/05/07 00:06:03;;;;;;;11.18;10.05;;;;;;;7.74;56.60;101410.72;5342521;26;20114;-66
2024/05/07 00:08:28;;;;;;;10.13;9.13;;;;;;;7.86;56.44;101413.97;5346845;26;20634;-66
2024/05/07 00:10:54;;;;;;;10.60;8.95;;;;;;;7.88;56.42;101414.78;5371909;26;20014;-68
2024/05/07 00:13:19;;;;;;;9.68;8.20;;;;;;;7.89;56.23;101419.09;5365902;26;20007;-68
2024/05/07 00:15:47;;;;;;;9.73;8.73;;;;;;;7.88;56.27;101420.84;5353635;26;20402;-66
2024/05/07 00:18:12;;;;;;;11.57;9.68;;;;;;;7.99;56.21;101423.25;5367786;26;20000;-67
2024/05/07 00:20:38;;;;;;;8.57;7.68;;;;;;;8.01;56.02;101426.69;5356629;26;20007;-66
2024/05/07 00:23:03;;;;;;;9.35;8.35;;;;;;;8.00;56.00;101429.31;5366580;26;20015;-68
2024/05/07 00:25:29;;;;;;;8.77;7.57;;;;;;;7.99;56.00;101433.66;5352398;26;20039;-67
2024/05/07 00:27:54;;;;;;;9.60;7.80;;;;;;;8.04;55.84;101431.81;5362653;26;20550;-66
2024/05/07 00:30:20;;;;;;;10.45;9.35;;;;;;;8.12;55.79;101440.31;5365313;26;20006;-65
2024/05/07 00:32:45;;;;;;;9.70;7.57;;;;;;;8.13;55.51;101446.38;5356465;26;22813;-68
2024/05/07 00:35:11;;;;;;;10.32;8.35;;;;;;;8.04;55.75;101437.00;5357183;26;20353;-68
2024/05/07 00:37:36;;;;;;;11.93;8.52;;;;;;;8.11;55.80;101441.22;5350793;26;20024;-68
2024/05/07 00:40:02;;;;;;;8.60;7.80;;;;;;;8.14;55.53;101448.13;5370282;26;19999;-67
2024/05/07 00:42:28;;;;;;;7.72;6.82;;;;;;;8.14;55.48;101448.97;5364508;26;20003;-66
2024/05/07 00:44:53;;;;;;;8.65;6.80;;;;;;;8.12;55.64;101448.13;5360621;26;20003;-66
2024/05/07 00:47:22;;;;;;;8.50;7.68;;;;;;;8.11;55.66;101446.44;5366190;26;20016;-67
2024/05/07 00:49:50;;;;;;;7.20;6.50;;;;;;;8.14;55.45;101454.19;5329742;26;20424;-67
2024/05/07 00:52:15;;;;;;;7.38;6.40;;;;;;;8.08;55.84;101448.25;5366814;26;20751;-67
2024/05/07 00:54:41;;;;;;;10.60;7.43;;;;;;;7.95;55.72;101461.47;5356622;26;20030;-67
2024/05/07 00:57:07;;;;;;;8.90;8.00;;;;;;;7.93;55.91;101462.41;5364649;26;19996;-67
2024/05/07 00:59:32;;;;;;;14.05;9.23;;;;;;;8.03;55.86;101463.94;5358557;26;20063;-68
2024/05/07 01:02:01;;;;;;;9.07;7.85;;;;;;;7.94;55.83;101467.59;5363924;26;19999;-66
2024/05/07 01:04:26;;;;;;;8.82;8.02;;;;;;;7.92;55.54;101466.75;5371303;26;20855;-67
2024/05/07 01:06:52;;;;;;;13.15;10.07;;;;;;;7.90;56.04;101470.28;5356024;26;20003;-68
2024/05/07 01:09:17;;;;;;;10.63;9.05;;;;;;;7.87;55.69;101467.72;5363343;26;20011;-66
2024/05/07 01:11:47;;;;;;;12.50;9.23;;;;;;;7.83;55.68;101473.91;5360254;26;20019;-67
2024/05/07 01:14:13;;;;;;;9.43;8.13;;;;;;;7.80;55.68;101471.34;5365987;26;20015;-67
2024/05/07 01:16:41;;;;;;;9.82;8.82;;;;;;;7.74;55.76;101470.56;5358963;26;20424;-67
2024/05/07 01:19:12;;;;;;;9.07;7.93;;;;;;;7.76;55.82;101480.06;5364612;26;20010;-65
2024/05/07 01:21:37;;;;;;;11.68;8.77;;;;;;;7.77;55.88;101479.22;5361041;26;20076;-68
2024/05/07 01:24:06;;;;;;;11.10;9.63;;;;;;;7.77;55.78;101480.06;5366844;26;20008;-72
2024/05/07 01:26:34;;;;;;;11.43;9.27;;;;;;;7.74;55.76;101483.59;5365485;26;20000;-70
2024/05/07 01:29:05;;;;;;;12.70;10.10;;;;;;;7.83;55.59;101486.91;5309277;26;20763;-70
2024/05/07 01:31:33;;;;;;;11.18;9.98;;;;;;;7.79;55.44;101487.84;5368336;26;20015;-70
2024/05/07 01:34:01;;;;;;;12.45;8.85;;;;;;;7.87;55.22;101491.16;5330299;26;21118;-70
2024/05/07 01:36:27;;;;;;;9.10;8.18;;;;;;;7.82;55.46;101490.38;5371778;26;20739;-70
2024/05/07 01:38:52;;;;;;;11.45;9.55;;;;;;;7.78;55.25;101494.81;5351976;26;20481;-71
2024/05/07 01:41:18;;;;;;;10.15;8.35;;;;;;;7.75;55.10;101492.25;5370971;26;20927;-66
2024/05/07 01:43:44;;;;;;;9.65;8.63;;;;;;;7.72;55.16;101493.16;5349933;26;20041;-68
2024/05/07 01:46:10;;;;;;;8.63;6.97;;;;;;;7.76;55.16;101493.09;5365353;26;20000;-68
2024/05/07 01:48:36;;;;;;;8.55;7.72;;;;;;;7.77;55.20;101495.66;5357867;26;20481;-69
2024/05/07 01:51:01;;;;;;;9.38;7.50;;;;;;;7.73;55.23;101497.50;5361528;26;20023;-69
2024/05/07 01:53:26;;;;;;;10.27;8.27;;;;;;;7.71;55.32;101501.88;5341279;26;20383;-68
2024/05/07 01:55:52;;;;;;;8.35;7.35;;;;;;;7.65;55.16;101501.97;5358842;26;20016;-68
2024/05/07 01:58:20;;;;;;;10.82;9.30;;;;;;;7.63;55.35;101508.94;5366452;26;20011;-68
2024/05/07 02:00:46;;;;;;;11.05;8.10;;;;;;;7.63;55.27;101508.94;5355539;26;20004;-68
2024/05/07 02:03:13;;;;;;;8.63;7.70;;;;;;;7.55;55.22;101510.81;5365549;26;20374;-68
2024/05/07 02:05:39;;;;;;;12.70;7.78;;;;;;;7.50;55.51;101508.25;5356351;26;19995;-70
2024/05/07 02:08:11;;;;;;;9.57;7.70;;;;;;;7.56;55.39;101512.53;5361951;26;20014;-69
2024/05/07 02:10:36;;;;;;;10.85;8.50;;;;;;;7.45;55.29;101514.44;5359986;26;20014;-67
2024/05/07 02:13:03;;;;;;;11.95;8.68;;;;;;;7.33;55.61;101516.34;5360046;26;20390;-66
2024/05/07 02:15:28;;;;;;;10.50;7.75;;;;;;;7.33;55.48;101510.25;5368957;26;20016;-66
2024/05/07 02:17:54;;;;;;;7.65;6.68;;;;;;;7.30;56.01;101521.56;5350464;26;20078;-67
2024/05/07 02:20:21;;;;;;;7.45;6.40;;;;;;;7.30;55.89;101518.13;5366366;26;20014;-66
2024/05/07 02:22:49;;;;;;;9.40;7.95;;;;;;;7.27;56.18;101520.78;5350686;26;20010;-67
2024/05/07 02:25:14;;;;;;;10.48;8.68;;;;;;;7.30;55.94;101526.78;5337778;26;20035;-66
2024/05/07 02:27:40;;;;;;;10.50;7.88;;;;;;;7.32;55.77;101519.81;5348003;26;20323;-67
2024/05/07 02:30:06;;;;;;;9.68;8.25;;;;;;;7.27;56.03;101526.00;5364483;26;21516;-67
2024/05/07 02:32:31;;;;;;;8.98;7.65;;;;;;;7.25;55.82;101526.00;5366021;26;20475;-66
2024/05/07 02:34:57;;;;;;;8.77;7.10;;;;;;;7.22;55.72;101532.97;5344026;26;20011;-65
2024/05/07 02:37:25;;;;;;;13.93;8.77;;;;;;;7.12;55.90;101533.13;5368294;26;20014;-64
2024/05/07 02:39:51;;;;;;;11.77;9.52;;;;;;;7.04;55.88;101540.19;5339920;26;20081;-65
2024/05/07 02:42:16;;;;;;;11.25;9.55;;;;;;;6.98;56.47;101542.03;5349456;26;20000;-65
2024/05/07 02:44:42;;;;;;;9.80;8.50;;;;;;;6.97;56.54;101542.88;5344893;26;20063;-64
2024/05/07 02:47:07;;;;;;;11.45;9.48;;;;;;;6.96;56.44;101538.59;5356725;26;20013;-64
2024/05/07 02:49:32;;;;;;;11.80;9.25;;;;;;;6.94;56.38;101541.19;5361176;26;20032;-66
2024/05/07 02:51:58;;;;;;;11.13;9.68;;;;;;;6.86;56.31;101537.84;5352880;26;20019;-70
2024/05/07 02:54:24;;;;;;;10.38;8.60;;;;;;;6.93;56.32;101546.41;5392994;26;20007;-69
2024/05/07 02:56:49;;;;;;;9.15;8.25;;;;;;;6.93;56.25;101541.22;5357294;26;20047;-69
2024/05/07 02:59:14;;;;;;;9.73;8.73;;;;;;;6.85;56.05;101544.78;5359214;26;20004;-71
2024/05/07 03:01:40;;;;;;;11.02;8.95;;;;;;;6.78;56.67;101547.50;5358320;26;20011;-70
2024/05/07 03:04:05;;;;;;;10.07;9.05;;;;;;;6.69;56.88;101554.53;5355890;26;19999;-69
2024/05/07 03:06:31;;;;;;;9.52;8.52;;;;;;;6.72;56.81;101553.63;5338839;26;20140;-70
2024/05/07 03:08:59;;;;;;;10.38;7.97;;;;;;;6.77;56.50;101551.81;5345263;26;21030;-69
2024/05/07 03:11:24;;;;;;;10.73;8.05;;;;;;;6.76;56.69;101554.44;5367749;26;20648;-70
2024/05/07 03:13:50;;;;;;;8.35;7.53;;;;;;;6.75;56.78;101550.13;5353063;26;20004;-70
2024/05/07 03:16:15;;;;;;;7.55;6.85;;;;;;;6.75;56.41;101552.72;5354030;26;20000;-69
2024/05/07 03:18:41;;;;;;;7.53;6.82;;;;;;;6.74;56.36;101551.00;5342757;26;20103;-70
2024/05/07 03:21:06;;;;;;;7.97;7.15;;;;;;;6.73;56.51;101560.56;5365380;26;20007;-69
2024/05/07 03:23:32;;;;;;;9.43;8.40;;;;;;;6.67;56.38;101561.47;5359695;26;20000;-70
2024/05/07 03:25:57;;;;;;;10.30;8.10;;;;;;;6.67;56.29;101560.63;5352995;26;21602;-69
2024/05/07 03:28:23;;;;;;;9.35;7.57;;;;;;;6.61;56.49;101563.28;5384815;26;19996;-69
2024/05/07 03:30:48;;;;;;;8.38;7.47;;;;;;;6.67;56.42;101565.81;5351516;26;20000;-70
2024/05/07 03:33:14;;;;;;;9.48;7.53;;;;;;;6.67;56.38;101568.41;5360905;26;22589;-70
2024/05/07 03:35:47;;;;;;;7.00;6.32;;;;;;;6.66;56.17;101575.34;5355889;26;19996;-69
2024/05/07 03:38:18;;;;;;;8.48;6.55;;;;;;;6.68;56.15;101577.91;5361001;26;21197;-67
2024/05/07 03:40:44;;;;;;;7.40;6.57;;;;;;;6.61;56.25;101576.28;5334739;26;21390;-66
2024/05/07 03:43:09;;;;;;;7.82;7.03;;;;;;;6.53;56.16;101578.09;5362177;26;20076;-66
2024/05/07 03:45:35;;;;;;;9.07;7.43;;;;;;;6.46;56.29;101585.97;5361998;26;20003;-65
2024/05/07 03:48:00;;;;;;;9.27;7.00;;;;;;;6.55;56.30;101589.31;5353074;26;20045;-67
2024/05/07 03:50:27;;;;;;;10.77;7.30;;;;;;;6.60;56.13;101587.56;5332069;26;20000;-66
2024/05/07 03:52:53;;;;;;;9.52;7.45;;;;;;;6.67;55.80;101594.38;5357395;26;20010;-66
2024/05/07 03:55:21;;;;;;;9.50;7.55;;;;;;;6.66;55.89;101590.06;5358477;26;20014;-66
2024/05/07 03:57:49;;;;;;;7.88;7.07;;;;;;;6.61;55.99;101602.25;5354655;26;19996;-66
2024/05/07 04:00:15;;;;;;;9.20;7.65;;;;;;;6.67;55.66;101599.59;5358666;26;19995;-66
2024/05/07 04:02:40;;;;;;;7.85;6.90;;;;;;;6.68;56.21;101609.94;5365878;26;20204;-66
2024/05/07 04:05:06;;;;;;;11.60;7.40;;;;;;;6.82;56.20;101603.72;5357540;26;20008;-66
2024/05/07 04:07:32;;;;;;;10.75;8.13;;;;;;;7.01;55.98;101607.81;5358841;26;20427;-66
2024/05/07 04:10:00;;;;;;;8.65;7.50;;;;;;;7.18;55.63;101610.19;5357377;26;20012;-66
2024/05/07 04:12:26;;;;;;;8.82;7.38;;;;;;;7.31;55.29;101616.94;5359632;26;20017;-66
2024/05/07 04:14:51;;;;;;;11.18;8.20;;;;;;;7.38;55.17;101616.81;5378246;26;20059;-66
2024/05/07 04:17:17;;;;;;;8.32;7.05;;;;;;;7.43;55.18;101625.44;5355677;26;20759;-64
2024/05/07 04:19:42;;;;;;;9.52;7.82;;;;;;;7.52;55.14;101620.09;5380912;26;20018;-63
2024/05/07 04:22:08;;;;;;;11.05;8.40;;;;;;;7.52;54.88;101628.75;5355801;26;20015;-65
2024/05/07 04:24:33;;;;;;;10.80;8.07;;;;;;;7.49;54.99;101625.34;5347222;26;20011;-66
2024/05/07 04:26:59;;;;;;;7.78;6.95;;;;;;;7.59;55.28;101629.53;5345338;26;20098;-65
2024/05/07 04:29:25;;;;;;;11.30;8.85;;;;;;;7.70;55.15;101629.38;5351332;26;20643;-64
2024/05/07 04:31:51;;;;;;;9.20;7.45;;;;;;;7.86;54.65;101630.00;5359083;26;20125;-64
2024/05/07 04:34:16;;;;;;;10.50;7.20;;;;;;;7.95;54.63;101629.84;5352581;26;20480;-63
2024/05/07 04:36:42;;;;;;;12.07;9.18;;;;;;;8.03;54.74;101633.19;5357401;26;19999;-62
2024/05/07 04:39:09;;;;;;;12.57;8.48;;;;;;;8.06;55.05;101632.25;5341611;26;20076;-65
2024/05/07 04:41:35;;;;;;;13.10;8.95;;;;;;;8.18;54.92;101639.84;5357256;26;19996;-63
2024/05/07 04:44:00;;;;;;;14.25;8.80;;;;;;;8.32;55.10;101634.41;5354984;26;21093;-63
2024/05/07 04:46:26;;;;;;;10.77;8.40;;;;;;;8.45;54.96;101641.09;5357788;26;20023;-62
2024/05/07 04:48:51;;;;;;;12.63;9.05;;;;;;;8.61;54.93;101635.59;5359147;26;20014;-65
2024/05/07 04:51:17;;;;;;;14.80;9.52;;;;;;;8.72;54.82;101644.09;5362818;26;20027;-66
2024/05/07 04:53:42;;;;;;;12.23;9.50;;;;;;;8.85;54.96;101640.34;5368801;26;19999;-65
2024/05/07 04:56:08;;;;;;;15.70;10.80;;;;;;;8.91;54.50;101650.63;5352895;26;20039;-65
2024/05/07 04:58:33;;;;;;;12.93;10.40;;;;;;;8.94;54.83;101644.50;5363368;26;20045;-66
2024/05/07 05:00:58;;;;;;;10.82;8.93;;;;;;;9.03;54.90;101653.88;5358458;26;20055;-64
2024/05/07 05:03:27;;;;;;;12.23;9.15;;;;;;;9.19;54.53;101647.47;5355892;26;20581;-67
2024/05/07 05:05:52;;;;;;;14.45;9.02;;;;;;;9.30;54.13;101652.44;5385979;26;20060;-64
2024/05/07 05:08:18;;;;;;;16.98;10.63;;;;;;;9.30;54.13;101649.84;5360552;26;20198;-68
2024/05/07 05:10:45;;;;;;;13.27;10.35;;;;;;;9.36;54.35;101657.50;5366911;26;20023;-70
2024/05/07 05:13:12;;;;;;;16.17;10.55;;;;;;;9.45;54.55;101662.50;5355179;26;20007;-69
2024/05/07 05:15:37;;;;;;;17.90;11.35;;;;;;;9.58;54.23;101663.94;5366316;26;20084;-70
2024/05/07 05:18:03;;;;;;;15.32;11.68;;;;;;;9.71;54.08;101669.75;5353259;26;20011;-66
2024/05/07 05:20:30;;;;;;;19.52;12.98;;;;;;;9.70;54.36;101668.03;5387740;26;20497;-65
2024/05/07 05:22:56;;;;;;;21.88;14.57;;;;;;;9.82;54.40;101679.13;5360505;26;20591;-66
2024/05/07 05:25:21;;;;;;;17.95;12.25;;;;;;;9.81;54.93;101680.84;5358337;26;20010;-66
2024/05/07 05:27:49;;;;;;;22.08;13.07;;;;;;;9.86;55.40;101686.84;5360809;26;20007;-65
2024/05/07 05:30:14;;;;;;;19.60;13.70;;;;;;;9.97;55.21;101686.59;5359882;26;20047;-65
2024/05/07 05:32:40;;;;;;;19.75;13.82;;;;;;;10.09;55.15;101690.63;5366575;26;20761;-66
2024/05/07 05:35:06;;;;;;;23.08;14.95;;;;;;;10.09;55.26;101686.25;5355497;26;20065;-68
2024/05/07 05:37:32;;;;;;;22.70;15.20;;;;;;;10.08;55.21;101695.00;5363280;26;20081;-71
2024/05/07 05:39:57;;;;;;;21.90;14.55;;;;;;;10.32;54.97;101698.72;5354304;26;20008;-69
2024/05/07 05:42:23;;;;;;;21.13;14.18;;;;;;;10.42;55.11;101699.38;5390705;26;20014;-71
2024/05/07 05:44:49;;;;;;;17.10;13.10;;;;;;;10.61;55.08;101700.56;5360499;26;19999;-65
2024/05/07 05:47:14;;;;;;;24.23;14.93;;;;;;;10.70;54.87;101709.94;5355147;26;20007;-64
2024/05/07 05:49:40;;;;;;;22.27;15.40;;;;;;;10.67;54.91;101709.19;5364321;26;20011;-67
2024/05/07 05:52:06;;;;;;;21.50;13.80;;;;;;;10.76;54.80;101714.16;5353424;26;20037;-65
2024/05/07 05:54:35;;;;;;;24.80;15.50;;;;;;;10.80;54.62;101718.41;5363412;26;21799;-67
2024/05/07 05:57:01;;;;;;;27.02;16.13;;;;;;;10.95;54.70;101715.41;5353327;26;20008;-66
2024/05/07 05:59:27;;;;;;;25.23;14.90;;;;;;;11.07;54.63;101718.56;5362049;26;20003;-65
2024/05/07 06:01:52;;;;;;;20.08;14.68;;;;;;;11.16;54.40;101719.16;5345404;26;20000;-66
2024/05/07 06:04:18;;;;;;;28.17;15.75;;;;;;;11.38;53.86;101718.53;5362366;26;20027;-66
2024/05/07 06:06:43;;;;;;;18.20;13.85;;;;;;;11.50;53.61;101730.38;5362171;26;20007;-67
2024/05/07 06:09:09;;;;;;;20.33;13.45;;;;;;;11.59;53.55;101732.72;5352760;26;21076;-67
2024/05/07 06:11:38;;;;;;;19.20;13.95;;;;;;;11.62;53.85;101733.47;5357858;26;20457;-67
2024/05/07 06:14:04;;;;;;;23.48;14.52;;;;;;;11.87;52.77;101736.22;5355160;26;20003;-67
2024/05/07 06:16:30;;;;;;;22.77;13.45;;;;;;;12.21;52.37;101737.75;5326727;26;20007;-69
2024/05/07 06:18:55;;;;;;;22.08;14.02;;;;;;;12.36;52.12;101740.78;5357347;26;20082;-68
2024/05/07 06:21:22;;;;;;;19.90;12.75;;;;;;;12.46;50.88;101737.75;5358216;26;20014;-66
2024/05/07 06:23:48;;;;;;;18.70;12.98;;;;;;;12.50;51.20;101738.53;5366468;26;20733;-67
2024/05/07 06:26:14;;;;;;;21.00;12.90;;;;;;;12.29;51.84;101740.13;5356740;26;20000;-66
2024/05/07 06:28:39;;;;;;;20.38;13.32;;;;;;;12.44;51.88;101743.97;5355676;26;20015;-67
2024/05/07 06:31:05;;;;;;;20.25;12.63;;;;;;;12.66;51.99;101744.94;5356672;26;20076;-68
2024/05/07 06:33:31;;;;;;;19.80;12.70;;;;;;;12.83;50.56;101746.16;5356260;26;20004;-67
2024/05/07 06:35:56;;;;;;;18.98;12.68;;;;;;;12.61;51.16;101754.75;5358182;26;20430;-67
2024/05/07 06:38:22;;;;;;;21.60;13.65;;;;;;;12.79;50.60;101749.81;5349188;26;20000;-66
2024/05/07 06:40:49;;;;;;;19.60;13.00;;;;;;;12.61;51.15;101752.13;5364937;26;20004;-69
2024/05/07 06:43:14;;;;;;;22.50;12.60;;;;;;;12.61;51.70;101753.91;5306212;26;20089;-70
2024/05/07 06:45:40;;;;;;;19.17;12.77;;;;;;;12.94;50.80;101753.63;5356224;26;20008;-70
2024/05/07 06:48:08;;;;;;;20.95;12.70;;;;;;;13.01;49.75;101756.00;5365042;26;20003;-65
2024/05/07 06:50:37;;;;;;;16.55;12.75;;;;;;;12.79;50.67;101755.03;5355096;26;20010;-65
2024/05/07 06:53:02;;;;;;;16.33;12.20;;;;;;;12.82;50.65;101758.41;5355386;26;19999;-65
2024/05/07 06:55:28;;;;;;;16.17;10.38;;;;;;;13.18;49.87;101763.22;5327999;26;21086;-65
2024/05/07 06:57:54;;;;;;;15.82;11.23;;;;;;;13.59;49.10;101767.88;5359652;26;20014;-65
2024/05/07 07:00:19;;;;;;;17.45;12.70;;;;;;;13.87;48.03;101770.28;5353692;26;20014;-64
2024/05/07 07:02:47;;;;;;;21.60;12.10;;;;;;;13.92;48.27;101777.06;5354299;26;20003;-65
2024/05/07 07:05:12;;;;;;;16.00;11.07;;;;;;;14.58;47.42;101775.31;5355974;26;20488;-64
2024/05/07 07:07:41;;;;;;;17.20;10.80;;;;;;;15.88;44.62;101777.28;5356073;26;20024;-65
2024/05/07 07:10:07;;;;;;;15.35;10.63;;;;;;;15.94;43.95;101777.00;5358688;26;19996;-66
2024/05/07 07:12:35;;;;;;;13.13;9.50;;;;;;;17.32;40.08;101776.19;5354840;26;20478;-66
2024/05/07 07:15:01;;;;;;;14.95;10.40;;;;;;;18.34;38.09;101777.53;5359693;26;20066;-68
2024/05/07 07:17:27;;;;;;;13.13;10.10;;;;;;;17.34;40.45;101767.25;5352781;26;19999;-68
2024/05/07 07:19:53;;;;;;;13.10;9.70;;;;;;;16.46;41.95;101780.66;5365006;26;20004;-67
2024/05/07 07:22:18;;;;;;;10.55;8.50;;;;;;;15.82;42.78;101790.78;5351255;26;20039;-65
2024/05/07 07:24:44;;;;;;;11.95;8.57;;;;;;;15.56;43.02;101789.38;5362668;26;21751;-67
2024/05/07 07:27:10;;;;;;;9.68;8.77;;;;;;;15.38;42.69;101799.00;5346901;26;21009;-67
2024/05/07 07:29:35;;;;;;;12.75;9.63;;;;;;;14.26;46.58;101801.16;5328776;26;20184;-65
2024/05/07 07:32:01;;;;;;;13.27;9.80;;;;;;;14.06;47.69;101802.81;5344829;26;20463;-68
2024/05/07 07:34:27;;;;;;;11.70;9.65;;;;;;;14.99;45.74;101812.97;5356666;26;20080;-67
2024/05/07 07:36:52;;;;;;;11.10;8.20;;;;;;;15.72;43.90;101810.59;5356215;26;20072;-68
2024/05/07 07:39:18;;;;;;;9.07;8.13;;;;;;;15.74;42.52;101806.09;5355542;26;20012;-66
2024/05/07 07:41:46;;;;;;;11.23;9.15;;;;;;;15.91;42.66;101800.03;5358493;26;20011;-67
2024/05/07 07:44:15;;;;;;;11.85;7.93;;;;;;;16.88;42.93;101805.81;5355525;26;19999;-67
2024/05/07 07:46:40;;;;;;;12.77;7.90;;;;;;;16.58;39.96;101801.16;5349616;26;20096;-66
2024/05/07 07:49:06;;;;;;;11.90;8.52;;;;;;;15.82;41.96;101818.91;5355083;26;20480;-64
2024/05/07 07:51:32;;;;;;;9.30;7.93;;;;;;;15.66;42.68;101819.66;5347076;26;20004;-65
2024/05/07 07:53:57;;;;;;;10.20;8.48;;;;;;;16.15;41.98;101819.09;5360650;26;20011;-65
2024/05/07 07:56:23;;;;;;;12.20;8.40;;;;;;;16.63;40.22;101822.88;5361556;26;20003;-65
2024/05/07 07:58:49;;;;;;;10.73;8.05;;;;;;;16.36;40.99;101819.84;5344807;26;20012;-68
2024/05/07 08:01:14;;;;;;;12.15;8.50;;;;;;;17.76;39.31;101825.78;5353212;26;20513;-65
2024/05/07 08:03:40;;;;;;;12.15;7.72;;;;;;;17.90;38.35;101828.50;5346681;26;20009;-67
2024/05/07 08:06:06;;;;;;;13.00;6.95;;;;;;;17.80;37.80;101833.44;5352927;26;20088;-64
2024/05/07 08:08:31;;;;;;;14.55;6.78;;;;;;;17.57;38.00;101837.38;5351940;26;20015;-65
2024/05/07 08:10:56;;;;;;;11.75;7.28;;;;;;;17.19;38.76;101840.25;5364062;26;20003;-64
2024/05/07 08:13:22;;;;;;;8.75;7.40;;;;;;;17.15;39.15;101851.06;5353407;26;20014;-66
2024/05/07 08:15:47;;;;;;;9.07;6.75;;;;;;;16.58;40.61;101843.41;5333768;26;20055;-66
2024/05/07 08:18:15;;;;;;;7.95;6.97;;;;;;;16.60;39.90;101845.03;5341742;26;20015;-66
2024/05/07 08:20:41;;;;;;;8.25;7.45;;;;;;;17.30;39.38;101844.13;5356197;26;20020;-66
2024/05/07 08:23:07;;;;;;;9.48;6.20;;;;;;;18.18;37.12;101848.94;5351902;26;20057;-65
2024/05/07 08:25:35;;;;;;;7.43;6.20;;;;;;;17.27;38.01;101858.34;5358049;26;20004;-64
2024/05/07 08:28:01;;;;;;;7.78;5.75;;;;;;;16.66;39.88;101864.94;5359191;26;20011;-64
2024/05/07 08:30:26;;;;;;;10.50;5.75;;;;;;;16.44;41.67;101857.25;5336974;26;20023;-65
2024/05/07 08:32:52;;;;;;;8.55;6.35;;;;;;;15.92;42.14;101862.38;5357985;26;20741;-64
2024/05/07 08:35:18;;;;;;;8.45;5.22;;;;;;;15.92;43.22;101862.38;5352053;26;20757;-66
2024/05/07 08:37:45;;;;;;;8.68;6.15;;;;;;;15.77;42.94;101870.09;5347603;26;20047;-66
2024/05/07 08:40:14;;;;;;;7.65;5.70;;;;;;;15.76;42.11;101864.88;5325248;26;19995;-65
2024/05/07 08:42:42;;;;;;;7.75;5.30;;;;;;;15.79;42.17;101872.63;5348472;26;20593;-65
2024/05/07 08:45:08;;;;;;;5.85;5.30;;;;;;;15.92;42.42;101879.03;5357923;26;20030;-66
2024/05/07 08:47:36;;;;;;;8.30;5.60;;;;;;;16.07;41.69;101877.50;5355379;26;20011;-64
2024/05/07 08:50:03;;;;;;;8.68;5.88;;;;;;;16.70;40.41;101882.34;5361072;26;20000;-66
2024/05/07 08:52:32;;;;;;;7.40;5.30;;;;;;;16.69;40.04;101880.66;5319736;26;20047;-64
2024/05/07 08:54:57;;;;;;;6.47;5.85;;;;;;;16.25;40.57;101881.06;5333257;26;20015;-64
2024/05/07 08:57:24;;;;;;;6.75;5.93;;;;;;;16.00;40.83;101895.41;5325799;26;20871;-63
2024/05/07 08:59:49;;;;;;;10.65;6.53;;;;;;;15.83;41.75;101899.72;5354611;26;20446;-64
2024/05/07 09:02:15;;;;;;;6.40;5.57;;;;;;;15.75;41.07;101897.41;5350645;26;20018;-67
2024/05/07 09:04:40;;;;;;;8.30;6.07;;;;;;;15.41;42.91;101909.47;5352757;26;20003;-64
2024/05/07 09:07:06;;;;;;;12.88;6.63;;;;;;;15.45;42.74;101912.84;5288068;26;20089;-65
2024/05/07 09:09:32;;;;;;;6.40;5.45;;;;;;;16.34;41.28;101906.97;5362607;26;20011;-63
2024/05/07 09:12:01;;;;;;;8.98;6.03;;;;;;;17.14;38.87;101908.31;5362334;26;20016;-64
2024/05/07 09:14:27;;;;;;;6.50;5.38;;;;;;;17.76;38.77;101911.25;5356685;26;19999;-64
2024/05/07 09:16:52;;;;;;;12.27;5.95;;;;;;;17.79;38.65;101911.09;5351112;26;20010;-64
2024/05/07 09:19:18;;;;;;;7.20;5.25;;;;;;;17.42;38.33;101914.81;5347035;26;24027;-64
2024/05/07 09:21:46;;;;;;;6.70;4.45;;;;;;;16.84;38.94;101921.28;5330666;26;20036;-66
2024/05/07 09:24:11;;;;;;;8.10;5.32;;;;;;;16.79;39.85;101918.88;5349950;26;20000;-64
2024/05/07 09:26:46;;;;;;;6.47;4.65;;;;;;;16.60;39.67;101934.75;5363584;26;20080;-65
2024/05/07 09:29:13;;;;;;;6.40;4.88;;;;;;;16.21;40.75;101942.78;5340074;26;20038;-63
2024/05/07 09:31:42;;;;;;;5.97;5.10;;;;;;;15.98;41.34;101934.13;5364446;26;20082;-63
2024/05/07 09:34:15;;;;;;;9.18;5.20;;;;;;;16.04;41.32;101947.97;5351314;26;20016;-66
2024/05/07 09:36:47;;;;;;;6.68;5.05;;;;;;;16.00;40.93;101932.31;5359612;26;20273;-65
2024/05/07 09:39:19;;;;;;;8.27;5.32;;;;;;;16.24;41.65;101939.16;5343372;26;20031;-65
2024/05/07 09:41:51;;;;;;;5.68;5.07;;;;;;;16.55;40.07;101935.88;5360784;26;20004;-63
2024/05/07 09:44:24;;;;;;;5.43;3.75;;;;;;;16.60;39.87;101945.31;5347333;26;20045;-65
2024/05/07 09:46:51;;;;;;;6.65;4.85;;;;;;;16.67;39.92;101948.50;5357293;26;20017;-65
2024/05/07 09:49:18;;;;;;;9.02;5.00;;;;;;;16.41;40.68;101947.97;5349520;26;19999;-66
2024/05/07 09:51:44;;;;;;;8.77;6.45;;;;;;;16.54;39.89;101955.31;5361609;26;20719;-65
2024/05/07 09:54:14;;;;;;;5.03;4.47;;;;;;;16.14;40.67;101962.47;5355327;26;20011;-65
2024/05/07 09:56:41;;;;;;;7.85;5.20;;;;;;;16.03;40.97;101964.75;5344458;26;20004;-64
2024/05/07 09:59:07;;;;;;;8.25;4.28;;;;;;;16.26;40.40;101969.78;5356801;26;20784;-65
2024/05/07 10:01:35;;;;;;;4.43;4.03;;;;;;;16.39;40.62;101970.06;5343368;26;20067;-64
2024/05/07 10:04:04;;;;;;;5.55;4.53;;;;;;;16.28;40.90;101973.22;5385549;26;19999;-64
2024/05/07 10:06:32;;;;;;;9.65;4.22;;;;;;;16.31;40.41;101969.56;5336979;26;20508;-63
2024/05/07 10:08:57;;;;;;;6.40;4.60;;;;;;;16.52;41.33;101988.84;5360766;26;20041;-63
2024/05/07 10:11:24;;;;;;;6.15;5.32;;;;;;;16.90;39.46;101975.59;5344845;26;20720;-64
2024/05/07 10:13:50;;;;;;;5.75;4.32;;;;;;;17.00;38.22;101976.81;5383869;26;20007;-65
2024/05/07 10:16:27;;;;;;;7.78;5.30;;;;;;;16.99;39.14;101977.78;5348446;26;20038;-63
2024/05/07 10:19:15;;;;;;;8.90;4.43;;;;;;;17.03;38.76;101974.91;5350469;26;20047;-64
2024/05/07 10:21:49;;;;;;;7.35;5.53;;;;;;;16.95;39.04;101979.69;5382621;26;20007;-65
2024/05/07 10:24:16;;;;;;;8.52;5.00;;;;;;;16.51;38.94;101976.56;5314399;26;19995;-63
2024/05/07 10:26:41;;;;;;;6.55;4.80;;;;;;;16.42;40.11;101984.00;5355257;26;20003;-63
2024/05/07 10:29:11;;;;;;;7.68;5.50;;;;;;;16.58;40.43;101988.53;5356566;26;20010;-63
2024/05/07 10:31:37;;;;;;;8.68;5.68;;;;;;;16.44;39.84;101994.44;5342304;26;20008;-64
2024/05/07 10:34:03;;;;;;;7.70;6.05;;;;;;;16.24;40.21;101994.53;5357181;26;20014;-65
2024/05/07 10:36:30;;;;;;;9.85;5.72;;;;;;;16.30;40.64;101994.25;5318122;26;22388;-63
2024/05/07 10:38:55;;;;;;;12.07;7.20;;;;;;;16.90;38.88;101997.56;5356931;26;19996;-68
2024/05/07 10:41:30;;;;;;;8.52;5.93;;;;;;;17.14;39.92;102008.69;5351473;26;20018;-64
2024/05/07 10:43:56;;;;;;;8.75;6.43;;;;;;;18.17;38.79;102005.16;5359302;26;20710;-65
2024/05/07 10:46:26;;;;;;;9.00;7.57;;;;;;;18.06;36.91;102003.94;5349734;26;20019;-64
2024/05/07 10:49:00;;;;;;;13.05;7.57;;;;;;;18.18;37.13;101997.13;5358917;26;20004;-65
2024/05/07 10:51:27;;;;;;;15.27;8.13;;;;;;;18.74;35.72;102004.66;5351118;26;20238;-65
2024/05/07 10:53:54;;;;;;;9.48;6.82;;;;;;;19.39;36.19;101992.06;5338959;26;20012;-64
2024/05/07 10:56:21;;;;;;;11.60;7.75;;;;;;;19.56;35.68;101999.00;5350807;26;20014;-63
2024/05/07 10:59:07;;;;;;;11.85;8.07;;;;;;;18.85;36.04;101996.97;5361279;26;20077;-64
2024/05/07 11:01:37;;;;;;;9.00;7.85;;;;;;;17.83;37.63;102006.97;5349615;26;20018;-64
2024/05/07 11:04:03;;;;;;;10.05;7.38;;;;;;;17.41;37.97;102005.59;5359921;26;20000;-65
2024/05/07 11:06:33;;;;;;;12.45;7.95;;;;;;;17.29;38.27;102001.81;5347661;26;20000;-65
2024/05/07 11:09:00;;;;;;;13.30;8.05;;;;;;;17.05;38.92;102009.16;5359617;26;20015;-63
2024/05/07 11:11:26;;;;;;;10.73;8.15;;;;;;;17.12;39.76;102005.28;5351102;26;20469;-65
2024/05/07 11:13:54;;;;;;;13.18;8.52;;;;;;;17.01;39.45;102002.31;5357824;26;20078;-63
2024/05/07 11:16:20;;;;;;;17.52;9.43;;;;;;;16.59;40.35;102008.72;5347084;26;20324;-64
2024/05/07 11:18:51;;;;;;;10.60;8.02;;;;;;;16.45;40.15;102008.53;5359747;26;20806;-64